hwlogo.jpg (8581 bytes)
Home Your Weather Products Services Weather On Your Site Contact
HW Version Logo
Weather Info
Your Weather (Options)
Canadian Weather
International Weather
Enter your " Place, State", US Zip Code or ICAO:  
Forecast Information Radar Information
Williams Lake, British Columbia, Canada  Lat: 52.18N, Lon: 122.05W
ICAO Used: CYWL
Current Conditions
Updated: 7:00 AM PST TUE FEB 20 2018
Sun & Moon Information
Mostly Clear
Mostly Clear
Temp: -22°C
Humidity: 76%
Wind Speed: NW 3 MPH
Barometer: 1019 mb
Dewpoint: -25°C
Heat Index: -22°C
Wind Chill: -26°C
Civil Twilight: 6:39 AM PST Moon Phase:
Waxing Crescent Moon
Sunrise: 7:14 AM PST
Sunset: 5:29 PM PST
Civil Twilight: 6:03 PM PST
Forecast for Williams Lake, BC:
(Forecast based on TAF for )
0539 AM PST TUE FEB 20 2018
  
MORNING AFTERNOON EVENING OVERNIGHT
Fair Fair Fair Fair
ZoneCast:
Dated: 0539 AM PST TUE FEB 20 2018
Morning...Clear winds variable in direction at 3 mph. Becoming fair with winds from the northwest at 8 mph.

Afternoon...Fair with winds from the northwest at 8 mph.

Evening...Fair with winds from the northwest at 8 mph.

Overnight...Fair with winds from the northwest at 8 mph.

Original Encoded TAF:
Dated: 0539 AM PST TUE FEB 20 2018
2018/02/20 13:39
TAF CYWL 201238Z 2013/2101 VRB03KT P6SM SKC 
      BECMG 2015/2017 30007KT 
      RMK NXT FCST BY 201900Z